sensor_id;sensor_type;location;lat;lon;timestamp;P1;durP1;ratioP1;P2;durP2;ratioP2
20375;SDS011;10347;51.828;6.466;2023-11-25T00:02:21;4.15;;;1.70;;
20375;SDS011;10347;51.828;6.466;2023-11-25T00:04:48;3.20;;;1.77;;
20375;SDS011;10347;51.828;6.466;2023-11-25T00:07:14;3.85;;;1.70;;
20375;SDS011;10347;51.828;6.466;2023-11-25T00:09:39;3.88;;;1.70;;
20375;SDS011;10347;51.828;6.466;2023-11-25T00:12:05;4.60;;;2.00;;
20375;SDS011;10347;51.828;6.466;2023-11-25T00:14:31;3.47;;;1.95;;
20375;SDS011;10347;51.828;6.466;2023-11-25T00:16:56;3.25;;;2.10;;
20375;SDS011;10347;51.828;6.466;2023-11-25T00:19:22;3.58;;;2.00;;
20375;SDS011;10347;51.828;6.466;2023-11-25T00:21:47;6.72;;;2.17;;
20375;SDS011;10347;51.828;6.466;2023-11-25T00:24:13;2.67;;;2.10;;
20375;SDS011;10347;51.828;6.466;2023-11-25T00:26:38;4.63;;;2.40;;
20375;SDS011;10347;51.828;6.466;2023-11-25T00:29:04;7.43;;;2.40;;
20375;SDS011;10347;51.828;6.466;2023-11-25T00:31:30;8.50;;;2.47;;
20375;SDS011;10347;51.828;6.466;2023-11-25T00:33:56;5.63;;;2.20;;
20375;SDS011;10347;51.828;6.466;2023-11-25T00:36:21;3.40;;;1.90;;
20375;SDS011;10347;51.828;6.466;2023-11-25T00:38:47;6.55;;;2.17;;
20375;SDS011;10347;51.828;6.466;2023-11-25T00:41:12;4.28;;;1.80;;
20375;SDS011;10347;51.828;6.466;2023-11-25T00:43:38;2.92;;;2.10;;
20375;SDS011;10347;51.828;6.466;2023-11-25T00:46:03;5.18;;;2.38;;
20375;SDS011;10347;51.828;6.466;2023-11-25T00:48:29;2.30;;;2.10;;
20375;SDS011;10347;51.828;6.466;2023-11-25T00:51:00;4.50;;;2.28;;
20375;SDS011;10347;51.828;6.466;2023-11-25T00:53:26;5.53;;;2.50;;
20375;SDS011;10347;51.828;6.466;2023-11-25T00:55:52;5.65;;;2.38;;
20375;SDS011;10347;51.828;6.466;2023-11-25T00:58:17;4.03;;;2.03;;
20375;SDS011;10347;51.828;6.466;2023-11-25T01:00:43;4.85;;;2.30;;
20375;SDS011;10347;51.828;6.466;2023-11-25T01:03:09;5.32;;;2.20;;
20375;SDS011;10347;51.828;6.466;2023-11-25T01:05:34;5.88;;;2.67;;
20375;SDS011;10347;51.828;6.466;2023-11-25T01:08:00;4.30;;;2.00;;
20375;SDS011;10347;51.828;6.466;2023-11-25T01:10:26;6.28;;;2.45;;
20375;SDS011;10347;51.828;6.466;2023-11-25T01:12:51;3.58;;;2.10;;
20375;SDS011;10347;51.828;6.466;2023-11-25T01:15:17;10.38;;;2.70;;
20375;SDS011;10347;51.828;6.466;2023-11-25T01:17:44;5.75;;;2.40;;
20375;SDS011;10347;51.828;6.466;2023-11-25T01:20:10;6.65;;;2.70;;
20375;SDS011;10347;51.828;6.466;2023-11-25T01:22:36;6.40;;;2.40;;
20375;SDS011;10347;51.828;6.466;2023-11-25T01:25:01;8.25;;;2.58;;
20375;SDS011;10347;51.828;6.466;2023-11-25T01:27:27;6.75;;;2.47;;
20375;SDS011;10347;51.828;6.466;2023-11-25T01:29:52;5.57;;;2.60;;
20375;SDS011;10347;51.828;6.466;2023-11-25T01:32:18;6.95;;;2.28;;
20375;SDS011;10347;51.828;6.466;2023-11-25T01:34:45;6.03;;;2.53;;
20375;SDS011;10347;51.828;6.466;2023-11-25T01:37:10;8.00;;;2.40;;
20375;SDS011;10347;51.828;6.466;2023-11-25T01:39:40;9.15;;;2.58;;
20375;SDS011;10347;51.828;6.466;2023-11-25T01:42:06;6.20;;;2.40;;
20375;SDS011;10347;51.828;6.466;2023-11-25T01:44:32;11.88;;;2.40;;
20375;SDS011;10347;51.828;6.466;2023-11-25T01:46:58;8.60;;;2.60;;
20375;SDS011;10347;51.828;6.466;2023-11-25T01:49:23;6.38;;;2.70;;
20375;SDS011;10347;51.828;6.466;2023-11-25T01:51:50;7.55;;;2.08;;
20375;SDS011;10347;51.828;6.466;2023-11-25T01:54:17;6.38;;;2.35;;
20375;SDS011;10347;51.828;6.466;2023-11-25T01:56:45;6.35;;;2.63;;
20375;SDS011;10347;51.828;6.466;2023-11-25T01:59:13;10.45;;;2.63;;
20375;SDS011;10347;51.828;6.466;2023-11-25T02:01:41;12.13;;;2.70;;
20375;SDS011;10347;51.828;6.466;2023-11-25T02:04:08;6.72;;;2.30;;
20375;SDS011;10347;51.828;6.466;2023-11-25T02:06:34;5.30;;;2.30;;
20375;SDS011;10347;51.828;6.466;2023-11-25T02:09:00;8.52;;;2.38;;
20375;SDS011;10347;51.828;6.466;2023-11-25T02:11:26;8.20;;;2.60;;
20375;SDS011;10347;51.828;6.466;2023-11-25T02:13:51;6.07;;;2.58;;
20375;SDS011;10347;51.828;6.466;2023-11-25T02:16:17;12.13;;;3.05;;
20375;SDS011;10347;51.828;6.466;2023-11-25T02:18:45;8.27;;;2.60;;
20375;SDS011;10347;51.828;6.466;2023-11-25T02:21:10;11.32;;;2.55;;
20375;SDS011;10347;51.828;6.466;2023-11-25T02:23:36;6.90;;;2.40;;
20375;SDS011;10347;51.828;6.466;2023-11-25T02:26:01;8.43;;;2.60;;
20375;SDS011;10347;51.828;6.466;2023-11-25T02:28:28;8.50;;;2.83;;
20375;SDS011;10347;51.828;6.466;2023-11-25T02:30:53;7.45;;;2.40;;
20375;SDS011;10347;51.828;6.466;2023-11-25T02:33:19;9.35;;;2.90;;
20375;SDS011;10347;51.828;6.466;2023-11-25T02:35:47;9.30;;;2.70;;
20375;SDS011;10347;51.828;6.466;2023-11-25T02:38:12;10.82;;;2.60;;
20375;SDS011;10347;51.828;6.466;2023-11-25T02:40:39;13.45;;;2.80;;
20375;SDS011;10347;51.828;6.466;2023-11-25T02:43:08;8.02;;;2.55;;
20375;SDS011;10347;51.828;6.466;2023-11-25T02:45:36;11.68;;;3.10;;
20375;SDS011;10347;51.828;6.466;2023-11-25T02:48:03;8.90;;;2.42;;
20375;SDS011;10347;51.828;6.466;2023-11-25T02:50:29;10.95;;;3.05;;
20375;SDS011;10347;51.828;6.466;2023-11-25T02:52:55;6.53;;;2.47;;
20375;SDS011;10347;51.828;6.466;2023-11-25T02:55:21;7.63;;;2.75;;
20375;SDS011;10347;51.828;6.466;2023-11-25T02:57:46;8.48;;;2.75;;
20375;SDS011;10347;51.828;6.466;2023-11-25T03:00:13;11.52;;;2.58;;
20375;SDS011;10347;51.828;6.466;2023-11-25T03:02:53;7.82;;;2.83;;
20375;SDS011;10347;51.828;6.466;2023-11-25T03:05:25;11.02;;;2.90;;
20375;SDS011;10347;51.828;6.466;2023-11-25T03:07:56;7.47;;;2.38;;
20375;SDS011;10347;51.828;6.466;2023-11-25T03:10:24;8.63;;;3.25;;
20375;SDS011;10347;51.828;6.466;2023-11-25T03:12:50;6.57;;;2.58;;
20375;SDS011;10347;51.828;6.466;2023-11-25T03:15:16;9.95;;;2.40;;
20375;SDS011;10347;51.828;6.466;2023-11-25T03:17:42;15.98;;;2.60;;
20375;SDS011;10347;51.828;6.466;2023-11-25T03:20:07;10.98;;;3.17;;
20375;SDS011;10347;51.828;6.466;2023-11-25T03:22:33;7.90;;;2.20;;
20375;SDS011;10347;51.828;6.466;2023-11-25T03:24:59;13.02;;;2.85;;
20375;SDS011;10347;51.828;6.466;2023-11-25T03:27:26;8.20;;;2.65;;
20375;SDS011;10347;51.828;6.466;2023-11-25T03:29:53;8.23;;;2.45;;
20375;SDS011;10347;51.828;6.466;2023-11-25T03:32:19;10.88;;;2.72;;
20375;SDS011;10347;51.828;6.466;2023-11-25T03:34:45;14.20;;;3.25;;
20375;SDS011;10347;51.828;6.466;2023-11-25T03:37:11;11.15;;;2.92;;
20375;SDS011;10347;51.828;6.466;2023-11-25T03:39:36;12.18;;;3.28;;
20375;SDS011;10347;51.828;6.466;2023-11-25T03:42:02;8.88;;;2.90;;
20375;SDS011;10347;51.828;6.466;2023-11-25T03:44:29;16.20;;;3.80;;
20375;SDS011;10347;51.828;6.466;2023-11-25T03:46:55;7.25;;;2.58;;
20375;SDS011;10347;51.828;6.466;2023-11-25T03:49:21;15.10;;;3.10;;
20375;SDS011;10347;51.828;6.466;2023-11-25T03:51:46;11.07;;;3.15;;
20375;SDS011;10347;51.828;6.466;2023-11-25T03:54:12;7.20;;;2.88;;
20375;SDS011;10347;51.828;6.466;2023-11-25T03:56:37;8.65;;;2.72;;
20375;SDS011;10347;51.828;6.466;2023-11-25T03:59:03;12.07;;;2.92;;
20375;SDS011;10347;51.828;6.466;2023-11-25T04:01:28;9.18;;;2.67;;
20375;SDS011;10347;51.828;6.466;2023-11-25T04:03:54;18.45;;;2.95;;
20375;SDS011;10347;51.828;6.466;2023-11-25T04:06:19;10.48;;;2.72;;
20375;SDS011;10347;51.828;6.466;2023-11-25T04:08:45;14.32;;;3.33;;
20375;SDS011;10347;51.828;6.466;2023-11-25T04:11:10;11.05;;;2.60;;
20375;SDS011;10347;51.828;6.466;2023-11-25T04:13:36;13.50;;;3.05;;
20375;SDS011;10347;51.828;6.466;2023-11-25T04:16:02;12.52;;;3.20;;
20375;SDS011;10347;51.828;6.466;2023-11-25T04:18:28;13.63;;;2.90;;
20375;SDS011;10347;51.828;6.466;2023-11-25T04:20:55;12.52;;;2.90;;
20375;SDS011;10347;51.828;6.466;2023-11-25T04:23:21;16.50;;;3.50;;
20375;SDS011;10347;51.828;6.466;2023-11-25T04:25:46;15.70;;;3.33;;
20375;SDS011;10347;51.828;6.466;2023-11-25T04:28:13;15.18;;;3.63;;
20375;SDS011;10347;51.828;6.466;2023-11-25T04:30:39;15.95;;;3.30;;
20375;SDS011;10347;51.828;6.466;2023-11-25T04:33:08;12.80;;;3.35;;
20375;SDS011;10347;51.828;6.466;2023-11-25T04:35:34;8.50;;;3.10;;
20375;SDS011;10347;51.828;6.466;2023-11-25T04:38:02;16.17;;;3.63;;
20375;SDS011;10347;51.828;6.466;2023-11-25T04:40:28;13.73;;;3.38;;
20375;SDS011;10347;51.828;6.466;2023-11-25T04:42:53;16.02;;;3.80;;
20375;SDS011;10347;51.828;6.466;2023-11-25T04:45:19;16.85;;;3.90;;
20375;SDS011;10347;51.828;6.466;2023-11-25T04:47:45;17.58;;;4.05;;
20375;SDS011;10347;51.828;6.466;2023-11-25T04:50:12;17.30;;;3.72;;
20375;SDS011;10347;51.828;6.466;2023-11-25T04:52:39;13.02;;;3.50;;
20375;SDS011;10347;51.828;6.466;2023-11-25T04:55:05;10.82;;;2.70;;
20375;SDS011;10347;51.828;6.466;2023-11-25T04:57:32;13.88;;;3.28;;
20375;SDS011;10347;51.828;6.466;2023-11-25T04:59:57;13.70;;;3.22;;
20375;SDS011;10347;51.828;6.466;2023-11-25T05:02:23;9.68;;;2.80;;
20375;SDS011;10347;51.828;6.466;2023-11-25T05:04:49;12.57;;;2.60;;
20375;SDS011;10347;51.828;6.466;2023-11-25T05:07:14;10.93;;;3.30;;
20375;SDS011;10347;51.828;6.466;2023-11-25T05:09:40;15.65;;;3.22;;
20375;SDS011;10347;51.828;6.466;2023-11-25T05:12:06;12.13;;;2.60;;
20375;SDS011;10347;51.828;6.466;2023-11-25T05:14:32;13.73;;;3.22;;
20375;SDS011;10347;51.828;6.466;2023-11-25T05:17:01;7.18;;;2.30;;
20375;SDS011;10347;51.828;6.466;2023-11-25T05:19:27;8.70;;;2.45;;
20375;SDS011;10347;51.828;6.466;2023-11-25T05:21:52;6.90;;;1.92;;
20375;SDS011;10347;51.828;6.466;2023-11-25T05:24:18;5.35;;;1.95;;
20375;SDS011;10347;51.828;6.466;2023-11-25T05:26:45;3.88;;;1.83;;
20375;SDS011;10347;51.828;6.466;2023-11-25T05:29:10;7.18;;;1.90;;
20375;SDS011;10347;51.828;6.466;2023-11-25T05:31:36;7.13;;;2.13;;
20375;SDS011;10347;51.828;6.466;2023-11-25T05:34:02;4.68;;;1.75;;
20375;SDS011;10347;51.828;6.466;2023-11-25T05:36:31;2.22;;;1.70;;
20375;SDS011;10347;51.828;6.466;2023-11-25T05:38:59;4.03;;;1.73;;
20375;SDS011;10347;51.828;6.466;2023-11-25T05:41:28;1.67;;;1.50;;
20375;SDS011;10347;51.828;6.466;2023-11-25T05:43:54;3.33;;;1.50;;
20375;SDS011;10347;51.828;6.466;2023-11-25T05:46:20;1.83;;;1.42;;
20375;SDS011;10347;51.828;6.466;2023-11-25T05:48:46;3.65;;;1.55;;
20375;SDS011;10347;51.828;6.466;2023-11-25T05:51:12;1.88;;;1.50;;
20375;SDS011;10347;51.828;6.466;2023-11-25T05:53:37;4.30;;;1.48;;
20375;SDS011;10347;51.828;6.466;2023-11-25T05:56:03;2.90;;;1.70;;
20375;SDS011;10347;51.828;6.466;2023-11-25T05:58:29;2.17;;;1.42;;
20375;SDS011;10347;51.828;6.466;2023-11-25T06:00:54;2.03;;;1.40;;
20375;SDS011;10347;51.828;6.466;2023-11-25T06:03:20;3.45;;;1.38;;
20375;SDS011;10347;51.828;6.466;2023-11-25T06:05:45;4.05;;;1.48;;
20375;SDS011;10347;51.828;6.466;2023-11-25T06:08:11;3.13;;;1.40;;
20375;SDS011;10347;51.828;6.466;2023-11-25T06:10:36;4.03;;;1.70;;
20375;SDS011;10347;51.828;6.466;2023-11-25T06:13:02;3.65;;;1.83;;
20375;SDS011;10347;51.828;6.466;2023-11-25T06:15:29;4.15;;;1.58;;
20375;SDS011;10347;51.828;6.466;2023-11-25T06:17:54;4.80;;;1.80;;
20375;SDS011;10347;51.828;6.466;2023-11-25T06:20:20;7.85;;;1.80;;
20375;SDS011;10347;51.828;6.466;2023-11-25T06:22:49;6.22;;;2.10;;
20375;SDS011;10347;51.828;6.466;2023-11-25T06:25:17;4.80;;;1.75;;
20375;SDS011;10347;51.828;6.466;2023-11-25T06:27:42;5.93;;;1.98;;
20375;SDS011;10347;51.828;6.466;2023-11-25T06:30:08;3.88;;;1.77;;
20375;SDS011;10347;51.828;6.466;2023-11-25T06:32:34;5.40;;;1.90;;
20375;SDS011;10347;51.828;6.466;2023-11-25T06:35:00;7.82;;;1.92;;
20375;SDS011;10347;51.828;6.466;2023-11-25T06:37:25;5.18;;;1.98;;
20375;SDS011;10347;51.828;6.466;2023-11-25T06:39:51;7.45;;;1.90;;
20375;SDS011;10347;51.828;6.466;2023-11-25T06:42:17;8.95;;;2.35;;
20375;SDS011;10347;51.828;6.466;2023-11-25T06:44:42;7.75;;;2.65;;
20375;SDS011;10347;51.828;6.466;2023-11-25T06:47:12;9.02;;;3.55;;
20375;SDS011;10347;51.828;6.466;2023-11-25T06:49:37;10.57;;;2.78;;
20375;SDS011;10347;51.828;6.466;2023-11-25T06:52:03;9.50;;;2.75;;
20375;SDS011;10347;51.828;6.466;2023-11-25T06:54:29;11.10;;;2.72;;
20375;SDS011;10347;51.828;6.466;2023-11-25T06:56:56;16.77;;;4.47;;
20375;SDS011;10347;51.828;6.466;2023-11-25T06:59:21;8.75;;;3.22;;
20375;SDS011;10347;51.828;6.466;2023-11-25T07:01:47;11.25;;;2.60;;
20375;SDS011;10347;51.828;6.466;2023-11-25T07:04:13;9.88;;;2.97;;
20375;SDS011;10347;51.828;6.466;2023-11-25T07:06:39;14.07;;;3.33;;
20375;SDS011;10347;51.828;6.466;2023-11-25T07:09:04;10.27;;;2.97;;
20375;SDS011;10347;51.828;6.466;2023-11-25T07:11:31;7.57;;;2.53;;
20375;SDS011;10347;51.828;6.466;2023-11-25T07:13:59;13.80;;;2.63;;
20375;SDS011;10347;51.828;6.466;2023-11-25T07:16:24;7.68;;;2.45;;
20375;SDS011;10347;51.828;6.466;2023-11-25T07:18:50;16.88;;;3.35;;
20375;SDS011;10347;51.828;6.466;2023-11-25T07:21:15;12.40;;;2.88;;
20375;SDS011;10347;51.828;6.466;2023-11-25T07:23:41;9.77;;;2.83;;
20375;SDS011;10347;51.828;6.466;2023-11-25T07:26:10;10.25;;;2.75;;
20375;SDS011;10347;51.828;6.466;2023-11-25T07:28:39;13.23;;;2.85;;
20375;SDS011;10347;51.828;6.466;2023-11-25T07:31:07;8.48;;;2.45;;
20375;SDS011;10347;51.828;6.466;2023-11-25T07:33:34;6.35;;;2.40;;
20375;SDS011;10347;51.828;6.466;2023-11-25T07:36:00;5.43;;;2.20;;
20375;SDS011;10347;51.828;6.466;2023-11-25T07:38:25;2.65;;;1.70;;
20375;SDS011;10347;51.828;6.466;2023-11-25T07:40:51;6.22;;;1.70;;
20375;SDS011;10347;51.828;6.466;2023-11-25T07:43:16;7.85;;;2.00;;
20375;SDS011;10347;51.828;6.466;2023-11-25T07:45:42;5.97;;;2.08;;
20375;SDS011;10347;51.828;6.466;2023-11-25T07:48:09;7.53;;;2.33;;
20375;SDS011;10347;51.828;6.466;2023-11-25T07:50:34;10.00;;;1.95;;
20375;SDS011;10347;51.828;6.466;2023-11-25T07:53:00;4.88;;;1.70;;
20375;SDS011;10347;51.828;6.466;2023-11-25T07:55:26;4.97;;;2.35;;
20375;SDS011;10347;51.828;6.466;2023-11-25T07:57:52;7.53;;;2.13;;
20375;SDS011;10347;51.828;6.466;2023-11-25T08:00:17;8.25;;;2.20;;
20375;SDS011;10347;51.828;6.466;2023-11-25T08:02:45;6.15;;;2.33;;
20375;SDS011;10347;51.828;6.466;2023-11-25T08:05:14;6.60;;;2.22;;
20375;SDS011;10347;51.828;6.466;2023-11-25T08:07:48;5.05;;;2.10;;
20375;SDS011;10347;51.828;6.466;2023-11-25T08:10:17;5.20;;;1.60;;
20375;SDS011;10347;51.828;6.466;2023-11-25T08:12:43;4.32;;;1.77;;
20375;SDS011;10347;51.828;6.466;2023-11-25T08:15:09;3.97;;;1.60;;
20375;SDS011;10347;51.828;6.466;2023-11-25T08:17:35;6.60;;;1.70;;
20375;SDS011;10347;51.828;6.466;2023-11-25T08:20:01;7.85;;;2.10;;
20375;SDS011;10347;51.828;6.466;2023-11-25T08:22:28;7.82;;;2.17;;
20375;SDS011;10347;51.828;6.466;2023-11-25T08:24:53;6.47;;;2.05;;
20375;SDS011;10347;51.828;6.466;2023-11-25T08:27:21;7.13;;;1.90;;
20375;SDS011;10347;51.828;6.466;2023-11-25T08:29:47;6.00;;;1.90;;
20375;SDS011;10347;51.828;6.466;2023-11-25T08:32:12;5.80;;;1.60;;
20375;SDS011;10347;51.828;6.466;2023-11-25T08:34:38;5.15;;;1.92;;
20375;SDS011;10347;51.828;6.466;2023-11-25T08:37:04;5.95;;;2.00;;
20375;SDS011;10347;51.828;6.466;2023-11-25T08:39:30;9.65;;;2.10;;
20375;SDS011;10347;51.828;6.466;2023-11-25T08:41:57;3.90;;;1.92;;
20375;SDS011;10347;51.828;6.466;2023-11-25T08:44:24;7.10;;;2.00;;
20375;SDS011;10347;51.828;6.466;2023-11-25T08:46:51;7.28;;;2.25;;
20375;SDS011;10347;51.828;6.466;2023-11-25T08:49:16;7.72;;;2.30;;
20375;SDS011;10347;51.828;6.466;2023-11-25T08:51:43;6.75;;;2.05;;
20375;SDS011;10347;51.828;6.466;2023-11-25T08:54:15;6.20;;;1.95;;
20375;SDS011;10347;51.828;6.466;2023-11-25T08:56:44;10.07;;;2.17;;
20375;SDS011;10347;51.828;6.466;2023-11-25T08:59:15;7.03;;;1.90;;
20375;SDS011;10347;51.828;6.466;2023-11-25T09:01:45;5.32;;;2.03;;
20375;SDS011;10347;51.828;6.466;2023-11-25T09:04:13;9.63;;;2.38;;
20375;SDS011;10347;51.828;6.466;2023-11-25T09:06:44;6.03;;;2.33;;
20375;SDS011;10347;51.828;6.466;2023-11-25T09:09:16;5.95;;;2.10;;
20375;SDS011;10347;51.828;6.466;2023-11-25T09:11:44;5.95;;;2.30;;
20375;SDS011;10347;51.828;6.466;2023-11-25T09:14:09;4.13;;;1.90;;
20375;SDS011;10347;51.828;6.466;2023-11-25T09:16:36;7.97;;;1.90;;
20375;SDS011;10347;51.828;6.466;2023-11-25T09:19:01;8.77;;;2.53;;
20375;SDS011;10347;51.828;6.466;2023-11-25T09:21:27;5.13;;;1.83;;
20375;SDS011;10347;51.828;6.466;2023-11-25T09:23:53;2.80;;;1.73;;
20375;SDS011;10347;51.828;6.466;2023-11-25T09:26:22;4.95;;;1.90;;
20375;SDS011;10347;51.828;6.466;2023-11-25T09:28:50;4.82;;;2.00;;
20375;SDS011;10347;51.828;6.466;2023-11-25T09:31:17;4.13;;;1.70;;
20375;SDS011;10347;51.828;6.466;2023-11-25T09:33:43;5.22;;;1.88;;
20375;SDS011;10347;51.828;6.466;2023-11-25T09:36:09;5.53;;;1.95;;
20375;SDS011;10347;51.828;6.466;2023-11-25T09:38:35;3.63;;;1.67;;
20375;SDS011;10347;51.828;6.466;2023-11-25T09:41:01;5.03;;;1.60;;
20375;SDS011;10347;51.828;6.466;2023-11-25T09:43:26;5.68;;;1.58;;
20375;SDS011;10347;51.828;6.466;2023-11-25T09:45:54;4.60;;;1.80;;
20375;SDS011;10347;51.828;6.466;2023-11-25T09:48:20;4.30;;;1.67;;
20375;SDS011;10347;51.828;6.466;2023-11-25T09:50:46;7.38;;;2.25;;
20375;SDS011;10347;51.828;6.466;2023-11-25T09:53:20;5.57;;;1.85;;
20375;SDS011;10347;51.828;6.466;2023-11-25T09:56:03;5.60;;;2.00;;
20375;SDS011;10347;51.828;6.466;2023-11-25T09:58:34;3.90;;;1.58;;
20375;SDS011;10347;51.828;6.466;2023-11-25T10:01:02;6.13;;;1.52;;
20375;SDS011;10347;51.828;6.466;2023-11-25T10:03:34;3.50;;;1.67;;
20375;SDS011;10347;51.828;6.466;2023-11-25T10:06:02;3.53;;;1.65;;
20375;SDS011;10347;51.828;6.466;2023-11-25T10:08:28;5.72;;;1.88;;
20375;SDS011;10347;51.828;6.466;2023-11-25T10:13:30;4.55;;;1.65;;
20375;SDS011;10347;51.828;6.466;2023-11-25T10:15:57;6.70;;;2.00;;
20375;SDS011;10347;51.828;6.466;2023-11-25T10:18:24;7.82;;;1.80;;
20375;SDS011;10347;51.828;6.466;2023-11-25T10:20:49;6.53;;;1.70;;
20375;SDS011;10347;51.828;6.466;2023-11-25T10:23:22;7.55;;;2.58;;
20375;SDS011;10347;51.828;6.466;2023-11-25T10:25:49;6.32;;;1.98;;
20375;SDS011;10347;51.828;6.466;2023-11-25T10:28:17;4.55;;;2.55;;
20375;SDS011;10347;51.828;6.466;2023-11-25T10:30:51;2.97;;;1.92;;
20375;SDS011;10347;51.828;6.466;2023-11-25T10:33:18;3.58;;;1.60;;
20375;SDS011;10347;51.828;6.466;2023-11-25T10:35:46;5.10;;;1.83;;
20375;SDS011;10347;51.828;6.466;2023-11-25T10:38:13;5.50;;;1.98;;
20375;SDS011;10347;51.828;6.466;2023-11-25T10:40:41;7.13;;;2.28;;
20375;SDS011;10347;51.828;6.466;2023-11-25T10:43:06;5.30;;;2.00;;
20375;SDS011;10347;51.828;6.466;2023-11-25T10:45:33;6.10;;;1.98;;
20375;SDS011;10347;51.828;6.466;2023-11-25T10:47:59;4.97;;;1.67;;
20375;SDS011;10347;51.828;6.466;2023-11-25T10:50:25;6.00;;;2.20;;
20375;SDS011;10347;51.828;6.466;2023-11-25T10:52:51;5.35;;;1.60;;
20375;SDS011;10347;51.828;6.466;2023-11-25T10:55:22;7.65;;;2.55;;
20375;SDS011;10347;51.828;6.466;2023-11-25T10:57:50;3.55;;;1.63;;
20375;SDS011;10347;51.828;6.466;2023-11-25T11:00:17;4.95;;;1.88;;
20375;SDS011;10347;51.828;6.466;2023-11-25T11:02:48;6.30;;;1.73;;
20375;SDS011;10347;51.828;6.466;2023-11-25T11:05:21;4.18;;;1.80;;
20375;SDS011;10347;51.828;6.466;2023-11-25T11:08:38;9.10;;;2.00;;
20375;SDS011;10347;51.828;6.466;2023-11-25T11:10:49;2.45;;;1.48;;
20375;SDS011;10347;51.828;6.466;2023-11-25T11:13:22;2.85;;;1.55;;
20375;SDS011;10347;51.828;6.466;2023-11-25T11:15:57;5.22;;;1.52;;
20375;SDS011;10347;51.828;6.466;2023-11-25T11:18:28;2.53;;;1.58;;
20375;SDS011;10347;51.828;6.466;2023-11-25T11:21:00;5.65;;;1.75;;
20375;SDS011;10347;51.828;6.466;2023-11-25T11:23:28;7.40;;;1.95;;
20375;SDS011;10347;51.828;6.466;2023-11-25T11:28:28;3.00;;;1.70;;
20375;SDS011;10347;51.828;6.466;2023-11-25T11:33:57;6.47;;;2.13;;
20375;SDS011;10347;51.828;6.466;2023-11-25T11:36:29;5.63;;;2.05;;
20375;SDS011;10347;51.828;6.466;2023-11-25T11:38:56;6.57;;;2.00;;
20375;SDS011;10347;51.828;6.466;2023-11-25T11:44:03;6.20;;;1.90;;
20375;SDS011;10347;51.828;6.466;2023-11-25T11:46:30;4.85;;;1.75;;
20375;SDS011;10347;51.828;6.466;2023-11-25T11:48:57;9.95;;;2.47;;
20375;SDS011;10347;51.828;6.466;2023-11-25T11:51:27;4.82;;;1.73;;
20375;SDS011;10347;51.828;6.466;2023-11-25T11:54:22;8.52;;;2.10;;
20375;SDS011;10347;51.828;6.466;2023-11-25T12:02:40;11.60;;;2.50;;
20375;SDS011;10347;51.828;6.466;2023-11-25T12:05:08;10.93;;;2.35;;
20375;SDS011;10347;51.828;6.466;2023-11-25T12:07:36;7.22;;;2.20;;
20375;SDS011;10347;51.828;6.466;2023-11-25T12:10:02;9.20;;;2.22;;
20375;SDS011;10347;51.828;6.466;2023-11-25T12:12:30;7.50;;;2.30;;
20375;SDS011;10347;51.828;6.466;2023-11-25T12:14:56;6.57;;;1.90;;
20375;SDS011;10347;51.828;6.466;2023-11-25T12:17:21;11.48;;;2.85;;
20375;SDS011;10347;51.828;6.466;2023-11-25T12:19:47;7.25;;;2.45;;
20375;SDS011;10347;51.828;6.466;2023-11-25T12:22:13;11.52;;;2.70;;
20375;SDS011;10347;51.828;6.466;2023-11-25T12:24:40;5.82;;;2.50;;
20375;SDS011;10347;51.828;6.466;2023-11-25T12:27:11;5.03;;;2.13;;
20375;SDS011;10347;51.828;6.466;2023-11-25T12:29:39;8.93;;;2.22;;
20375;SDS011;10347;51.828;6.466;2023-11-25T12:32:05;6.32;;;2.40;;
20375;SDS011;10347;51.828;6.466;2023-11-25T12:34:30;8.63;;;2.33;;
20375;SDS011;10347;51.828;6.466;2023-11-25T12:36:57;12.35;;;2.90;;
20375;SDS011;10347;51.828;6.466;2023-11-25T12:39:23;5.82;;;2.47;;
20375;SDS011;10347;51.828;6.466;2023-11-25T12:41:49;6.00;;;2.45;;
20375;SDS011;10347;51.828;6.466;2023-11-25T12:44:15;9.32;;;2.45;;
20375;SDS011;10347;51.828;6.466;2023-11-25T12:46:42;7.30;;;2.65;;
20375;SDS011;10347;51.828;6.466;2023-11-25T12:49:23;9.48;;;2.50;;
20375;SDS011;10347;51.828;6.466;2023-11-25T12:51:50;9.20;;;2.35;;
20375;SDS011;10347;51.828;6.466;2023-11-25T12:54:16;5.72;;;2.03;;
20375;SDS011;10347;51.828;6.466;2023-11-25T12:56:42;5.05;;;1.67;;
20375;SDS011;10347;51.828;6.466;2023-11-25T12:59:21;13.50;;;6.18;;
20375;SDS011;10347;51.828;6.466;2023-11-25T13:02:15;17.33;;;7.47;;
20375;SDS011;10347;51.828;6.466;2023-11-25T13:04:45;20.25;;;8.98;;
20375;SDS011;10347;51.828;6.466;2023-11-25T13:07:27;18.65;;;8.88;;
20375;SDS011;10347;51.828;6.466;2023-11-25T13:09:56;13.05;;;5.43;;
20375;SDS011;10347;51.828;6.466;2023-11-25T13:12:21;6.88;;;3.58;;
20375;SDS011;10347;51.828;6.466;2023-11-25T13:14:47;5.50;;;2.67;;
20375;SDS011;10347;51.828;6.466;2023-11-25T13:17:14;4.90;;;3.03;;
20375;SDS011;10347;51.828;6.466;2023-11-25T13:19:41;7.75;;;2.95;;
20375;SDS011;10347;51.828;6.466;2023-11-25T13:22:08;2.85;;;1.98;;
20375;SDS011;10347;51.828;6.466;2023-11-25T13:24:35;5.05;;;2.05;;
20375;SDS011;10347;51.828;6.466;2023-11-25T13:27:01;7.10;;;2.35;;
20375;SDS011;10347;51.828;6.466;2023-11-25T13:29:28;5.72;;;2.22;;
20375;SDS011;10347;51.828;6.466;2023-11-25T13:31:54;5.38;;;2.10;;
20375;SDS011;10347;51.828;6.466;2023-11-25T13:34:21;6.68;;;2.13;;
20375;SDS011;10347;51.828;6.466;2023-11-25T13:36:47;8.25;;;2.20;;
20375;SDS011;10347;51.828;6.466;2023-11-25T13:39:12;9.00;;;2.60;;
20375;SDS011;10347;51.828;6.466;2023-11-25T13:41:44;8.88;;;2.40;;
20375;SDS011;10347;51.828;6.466;2023-11-25T13:44:12;10.55;;;2.67;;
20375;SDS011;10347;51.828;6.466;2023-11-25T13:46:38;8.15;;;2.67;;
20375;SDS011;10347;51.828;6.466;2023-11-25T13:49:04;12.50;;;3.22;;
20375;SDS011;10347;51.828;6.466;2023-11-25T13:51:30;7.40;;;2.30;;
20375;SDS011;10347;51.828;6.466;2023-11-25T13:53:55;9.02;;;2.42;;
20375;SDS011;10347;51.828;6.466;2023-11-25T13:56:22;5.22;;;1.98;;
20375;SDS011;10347;51.828;6.466;2023-11-25T13:58:49;9.52;;;2.50;;
20375;SDS011;10347;51.828;6.466;2023-11-25T14:01:15;6.50;;;1.95;;
20375;SDS011;10347;51.828;6.466;2023-11-25T14:03:41;10.63;;;2.20;;
20375;SDS011;10347;51.828;6.466;2023-11-25T14:06:07;8.10;;;2.22;;
20375;SDS011;10347;51.828;6.466;2023-11-25T14:08:33;6.38;;;2.47;;
20375;SDS011;10347;51.828;6.466;2023-11-25T14:10:59;6.05;;;2.13;;
20375;SDS011;10347;51.828;6.466;2023-11-25T14:13:25;6.47;;;1.90;;
20375;SDS011;10347;51.828;6.466;2023-11-25T14:15:52;10.23;;;3.00;;
20375;SDS011;10347;51.828;6.466;2023-11-25T14:18:18;8.35;;;2.65;;
20375;SDS011;10347;51.828;6.466;2023-11-25T14:20:43;8.27;;;2.45;;
20375;SDS011;10347;51.828;6.466;2023-11-25T14:23:09;7.00;;;2.13;;
20375;SDS011;10347;51.828;6.466;2023-11-25T14:25:35;7.30;;;2.20;;
20375;SDS011;10347;51.828;6.466;2023-11-25T14:28:01;8.73;;;2.47;;
20375;SDS011;10347;51.828;6.466;2023-11-25T14:30:26;9.10;;;2.42;;
20375;SDS011;10347;51.828;6.466;2023-11-25T14:32:53;8.23;;;2.05;;
20375;SDS011;10347;51.828;6.466;2023-11-25T14:35:19;6.85;;;2.30;;
20375;SDS011;10347;51.828;6.466;2023-11-25T14:37:45;8.10;;;2.35;;
20375;SDS011;10347;51.828;6.466;2023-11-25T14:40:12;10.75;;;2.97;;
20375;SDS011;10347;51.828;6.466;2023-11-25T14:42:42;8.73;;;2.50;;
20375;SDS011;10347;51.828;6.466;2023-11-25T14:45:09;10.98;;;2.67;;
20375;SDS011;10347;51.828;6.466;2023-11-25T14:47:35;8.43;;;2.47;;
20375;SDS011;10347;51.828;6.466;2023-11-25T14:50:01;9.15;;;2.38;;
20375;SDS011;10347;51.828;6.466;2023-11-25T14:52:27;11.63;;;3.05;;
20375;SDS011;10347;51.828;6.466;2023-11-25T14:54:53;8.88;;;2.30;;
20375;SDS011;10347;51.828;6.466;2023-11-25T14:57:19;13.80;;;2.92;;
20375;SDS011;10347;51.828;6.466;2023-11-25T14:59:44;9.25;;;2.67;;
20375;SDS011;10347;51.828;6.466;2023-11-25T15:02:10;14.50;;;4.43;;